createdAt,value
2019-05-10T00:00:28.663Z,3.33
2019-05-10T00:03:16.138Z,8.40
2019-05-10T00:06:03.920Z,4.20
2019-05-10T00:08:45.641Z,1.90
2019-05-10T00:11:29.954Z,1.60
2019-05-10T00:14:34.154Z,1.80
2019-05-10T00:17:15.276Z,1.57
2019-05-10T00:19:45.373Z,4.50
2019-05-10T00:22:15.312Z,2.30
2019-05-10T00:25:01.665Z,2.10
2019-05-10T00:27:16.956Z,1.73
2019-05-10T00:30:06.387Z,1.90
2019-05-10T00:32:36.259Z,1.60
2019-05-10T00:35:06.812Z,1.83
2019-05-10T00:37:36.981Z,1.60
2019-05-10T00:40:07.496Z,1.57
2019-05-10T00:42:37.384Z,1.60
2019-05-10T00:45:08.230Z,1.10
2019-05-10T00:47:38.087Z,1.37
2019-05-10T00:50:08.129Z,1.07
2019-05-10T00:52:37.976Z,1.13
2019-05-10T00:55:18.321Z,2.30
2019-05-10T00:57:39.897Z,1.73
2019-05-10T01:00:10.727Z,1.40
2019-05-10T01:02:40.812Z,1.47
2019-05-10T01:05:10.805Z,6.43
2019-05-10T01:07:40.660Z,2.33
2019-05-10T01:10:11.330Z,3.57
2019-05-10T01:12:41.160Z,3.40
2019-05-10T01:15:12.009Z,2.60
2019-05-10T01:17:42.174Z,2.07
2019-05-10T01:20:12.178Z,1.77
2019-05-10T01:22:42.075Z,2.43
2019-05-10T01:25:13.193Z,1.53
2019-05-10T01:27:43.190Z,1.30
2019-05-10T01:30:13.427Z,1.43
2019-05-10T01:32:43.264Z,2.60
2019-05-10T01:35:14.370Z,2.40
2019-05-10T01:37:44.537Z,1.73
2019-05-10T01:40:14.457Z,1.87
2019-05-10T01:42:44.630Z,1.80
2019-05-10T01:45:15.306Z,1.83
2019-05-10T01:47:45.520Z,1.73
2019-05-10T01:50:15.691Z,2.63
2019-05-10T01:52:45.515Z,2.30
2019-05-10T01:55:15.530Z,2.13
2019-05-10T01:57:45.634Z,2.50
2019-05-10T02:00:16.559Z,2.10
2019-05-10T02:02:46.718Z,2.50
2019-05-10T02:05:17.422Z,3.47
2019-05-10T02:07:47.581Z,2.37
2019-05-10T02:10:17.593Z,2.97
2019-05-10T02:12:47.838Z,2.43
2019-05-10T02:15:18.129Z,2.27
2019-05-10T02:17:48.038Z,2.90
2019-05-10T02:20:17.999Z,3.00
2019-05-10T02:22:47.852Z,6.10
2019-05-10T02:25:18.918Z,2.60
2019-05-10T02:27:48.726Z,2.80
2019-05-10T02:30:19.331Z,2.70
2019-05-10T02:32:49.709Z,2.60
2019-05-10T02:35:19.612Z,2.70
2019-05-10T02:37:49.480Z,2.87
2019-05-10T02:40:19.471Z,3.27
2019-05-10T02:42:49.295Z,3.53
2019-05-10T02:45:20.322Z,3.73
2019-05-10T02:47:50.138Z,3.40
2019-05-10T02:50:21.070Z,3.20
2019-05-10T02:52:51.588Z,3.13
2019-05-10T02:55:21.473Z,4.00
2019-05-10T02:57:52.805Z,3.33
2019-05-10T03:00:22.991Z,3.77
2019-05-10T03:02:55.941Z,3.60
2019-05-10T03:05:28.755Z,5.00
2019-05-10T03:07:59.871Z,3.60
2019-05-10T03:10:33.436Z,4.87
2019-05-10T03:13:05.240Z,3.57
2019-05-10T03:15:38.601Z,3.87
2019-05-10T03:18:09.369Z,4.83
2019-05-10T03:20:39.758Z,4.80
2019-05-10T03:23:11.416Z,5.47
2019-05-10T03:25:41.254Z,5.83
2019-05-10T03:28:11.390Z,6.70
2019-05-10T03:30:41.551Z,6.53
2019-05-10T03:33:11.444Z,9.20
2019-05-10T03:35:41.596Z,7.73
2019-05-10T03:38:11.530Z,7.37
2019-05-10T03:40:41.394Z,8.03
2019-05-10T03:43:11.669Z,7.57
2019-05-10T03:45:41.508Z,6.73
2019-05-10T03:48:11.655Z,7.07
2019-05-10T03:50:41.865Z,8.47
2019-05-10T03:53:11.984Z,7.90
2019-05-10T03:55:42.397Z,8.80
2019-05-10T03:58:12.239Z,7.90
2019-05-10T04:00:42.749Z,8.90
2019-05-10T04:03:12.608Z,9.90
2019-05-10T04:05:42.550Z,8.20
2019-05-10T04:08:13.291Z,8.70
2019-05-10T04:10:43.395Z,9.67
2019-05-10T04:13:13.862Z,10.40
2019-05-10T04:15:44.668Z,10.93
2019-05-10T04:18:14.525Z,9.97
2019-05-10T04:20:44.411Z,10.60
2019-05-10T04:23:14.237Z,12.30
2019-05-10T04:25:44.470Z,11.40
2019-05-10T04:28:14.613Z,11.43
2019-05-10T04:30:44.799Z,12.23
2019-05-10T04:33:15.031Z,13.00
2019-05-10T04:35:45.215Z,10.77
2019-05-10T04:38:15.064Z,11.63
2019-05-10T04:40:45.568Z,11.67
2019-05-10T04:43:16.115Z,14.17
2019-05-10T04:45:46.872Z,12.60
2019-05-10T04:48:16.720Z,12.13
2019-05-10T04:50:49.298Z,11.43
2019-05-10T04:53:18.791Z,12.10
2019-05-10T04:55:48.711Z,12.27
2019-05-10T04:58:18.582Z,12.83
2019-05-10T05:00:48.438Z,12.07
2019-05-10T05:03:18.306Z,12.37
2019-05-10T05:05:48.125Z,14.40
2019-05-10T05:08:18.300Z,13.47
2019-05-10T05:10:48.462Z,13.53
2019-05-10T05:13:18.954Z,14.83
2019-05-10T05:15:48.845Z,14.77
2019-05-10T05:18:19.010Z,15.97
2019-05-10T05:20:48.933Z,15.73
2019-05-10T05:23:18.795Z,15.53
2019-05-10T05:25:49.137Z,15.70
2019-05-10T05:28:23.191Z,16.83
2019-05-10T05:30:50.648Z,15.50
2019-05-10T05:33:20.452Z,16.80
2019-05-10T05:35:50.276Z,17.03
2019-05-10T05:38:20.576Z,16.57
2019-05-10T05:40:50.656Z,16.33
2019-05-10T05:43:21.359Z,16.47
2019-05-10T05:45:51.218Z,15.70
2019-05-10T05:48:22.880Z,16.63
2019-05-10T05:50:52.710Z,15.83
2019-05-10T05:53:22.809Z,17.80
2019-05-10T05:55:52.984Z,15.67
2019-05-10T05:58:27.393Z,15.30
2019-05-10T06:00:55.129Z,17.13
2019-05-10T06:03:29.704Z,16.37
2019-05-10T06:05:56.651Z,15.13
2019-05-10T06:08:29.896Z,16.90
2019-05-10T06:11:00.080Z,18.00
2019-05-10T06:13:32.185Z,15.80
2019-05-10T06:16:06.449Z,17.10
2019-05-10T06:18:33.562Z,16.20
2019-05-10T06:21:03.719Z,16.40
2019-05-10T06:23:35.317Z,16.10
2019-05-10T06:26:06.317Z,15.13
2019-05-10T06:28:57.646Z,17.03
2019-05-10T06:31:08.461Z,15.60
2019-05-10T06:33:39.639Z,15.67
2019-05-10T06:36:09.944Z,17.47
2019-05-10T06:38:39.799Z,15.63
2019-05-10T06:41:09.969Z,15.40
2019-05-10T06:43:45.671Z,16.17
2019-05-10T06:46:13.484Z,16.33
2019-05-10T06:48:43.377Z,17.13
2019-05-10T06:51:26.333Z,16.07
2019-05-10T06:53:56.191Z,17.47
2019-05-10T06:56:26.384Z,13.30
2019-05-10T06:59:05.200Z,14.80
2019-05-10T07:01:28.136Z,12.73
2019-05-10T07:03:58.000Z,14.63
2019-05-10T07:06:27.835Z,16.77
2019-05-10T07:08:59.480Z,14.80
2019-05-10T07:11:29.493Z,12.80
2019-05-10T07:13:59.375Z,18.23
2019-05-10T07:16:29.563Z,17.83
2019-05-10T07:19:00.483Z,13.60
2019-05-10T07:21:31.372Z,10.13
2019-05-10T07:24:01.246Z,10.80
2019-05-10T07:26:31.556Z,10.07
2019-05-10T07:29:01.413Z,12.70
2019-05-10T07:31:31.319Z,14.17
2019-05-10T07:34:01.187Z,10.90
2019-05-10T07:36:31.260Z,8.97
2019-05-10T07:39:02.679Z,8.37
2019-05-10T07:41:32.703Z,14.77
2019-05-10T07:44:07.735Z,10.20
2019-05-10T07:46:34.299Z,9.37
2019-05-10T07:49:04.194Z,9.67
2019-05-10T07:51:34.023Z,14.90
2019-05-10T07:54:06.356Z,13.47
2019-05-10T07:56:39.103Z,9.83
2019-05-10T07:59:07.091Z,10.63
2019-05-10T08:01:36.927Z,12.10
2019-05-10T08:04:08.861Z,11.73
2019-05-10T08:06:44.403Z,8.27
2019-05-10T08:09:10.727Z,9.90
2019-05-10T08:11:40.600Z,7.37
2019-05-10T08:14:11.396Z,11.27
2019-05-10T08:16:41.284Z,8.67
2019-05-10T08:19:11.436Z,9.70
2019-05-10T08:21:42.000Z,10.00
2019-05-10T08:24:16.077Z,11.20
2019-05-10T08:26:43.421Z,7.53
2019-05-10T08:29:16.884Z,7.60
2019-05-10T08:31:52.613Z,6.87
2019-05-10T08:34:17.434Z,5.93
2019-05-10T08:36:47.922Z,5.47
2019-05-10T08:39:17.856Z,5.50
2019-05-10T08:42:01.320Z,7.87
2019-05-10T08:44:21.290Z,9.70
2019-05-10T08:46:52.502Z,10.37
2019-05-10T08:49:31.392Z,6.30
2019-05-10T08:51:54.088Z,5.13
2019-05-10T08:54:26.475Z,5.90
2019-05-10T08:57:01.005Z,5.33
2019-05-10T08:59:30.682Z,4.53
2019-05-10T09:01:59.059Z,3.20
2019-05-10T09:04:33.435Z,4.67
2019-05-10T09:07:02.654Z,3.23
2019-05-10T09:09:33.803Z,6.33
2019-05-10T09:12:09.014Z,3.63
2019-05-10T09:14:35.677Z,3.80
2019-05-10T09:17:05.696Z,4.37
2019-05-10T09:19:40.684Z,5.13
2019-05-10T09:22:07.113Z,5.80
2019-05-10T09:24:41.015Z,4.00
2019-05-10T09:27:08.612Z,3.33
2019-05-10T09:29:38.744Z,4.63
2019-05-10T09:32:08.587Z,4.70
2019-05-10T09:34:38.726Z,4.20
2019-05-10T09:37:16.070Z,5.43
2019-05-10T09:39:42.441Z,3.40
2019-05-10T09:42:25.233Z,3.10
2019-05-10T09:44:46.100Z,3.40
2019-05-10T09:47:15.573Z,3.70
2019-05-10T09:49:54.107Z,5.73
2019-05-10T09:52:18.655Z,4.10
2019-05-10T09:54:49.668Z,3.60
2019-05-10T09:57:19.494Z,3.50
2019-05-10T09:59:49.379Z,3.27
2019-05-10T10:02:19.546Z,3.17
2019-05-10T10:04:49.693Z,4.23
2019-05-10T10:07:24.253Z,3.60
2019-05-10T10:09:51.204Z,4.53
2019-05-10T10:12:21.431Z,3.67
2019-05-10T10:14:51.588Z,5.43
2019-05-10T10:17:21.443Z,3.23
2019-05-10T10:19:51.290Z,4.50
2019-05-10T10:22:21.806Z,4.13
2019-05-10T10:24:55.095Z,5.57
2019-05-10T10:27:28.028Z,7.73
2019-05-10T10:29:57.207Z,6.53
2019-05-10T10:32:31.565Z,5.10
2019-05-10T10:34:58.550Z,4.03
2019-05-10T10:37:31.199Z,3.67
2019-05-10T10:40:05.170Z,5.73
2019-05-10T10:42:31.601Z,6.00
2019-05-10T10:45:01.432Z,4.00
2019-05-10T10:47:38.773Z,8.30
2019-05-10T10:50:13.492Z,4.93
2019-05-10T10:52:41.526Z,4.07
2019-05-10T10:55:13.504Z,8.27
2019-05-10T10:57:43.487Z,3.20
2019-05-10T11:00:20.229Z,3.00
2019-05-10T11:02:51.783Z,3.17
2019-05-10T11:05:18.845Z,6.00
2019-05-10T11:07:51.048Z,4.57
2019-05-10T11:10:31.182Z,3.43
2019-05-10T11:13:05.804Z,3.27
2019-05-10T11:15:36.142Z,4.00
2019-05-10T11:18:04.792Z,4.90
2019-05-10T11:20:34.980Z,6.30
2019-05-10T11:23:05.180Z,3.87
2019-05-10T11:25:35.347Z,4.10
2019-05-10T11:28:08.906Z,7.70
2019-05-10T11:30:37.327Z,8.00
2019-05-10T11:33:22.019Z,6.87
2019-05-10T11:35:41.499Z,3.37
2019-05-10T11:38:12.964Z,3.53
2019-05-10T11:40:42.108Z,3.90
2019-05-10T11:43:12.103Z,7.30
2019-05-10T11:45:44.178Z,4.60
2019-05-10T11:48:13.797Z,9.00
2019-05-10T11:50:43.644Z,5.47
2019-05-10T11:53:17.415Z,4.80
2019-05-10T11:55:45.079Z,6.33
2019-05-10T11:58:15.529Z,5.37
2019-05-10T12:00:46.087Z,4.10
2019-05-10T12:03:21.388Z,4.83
2019-05-10T12:05:53.162Z,5.73
2019-05-10T12:08:22.180Z,10.13
2019-05-10T12:10:53.742Z,5.43
2019-05-10T12:13:25.023Z,7.60
2019-05-10T12:15:54.498Z,3.17
2019-05-10T12:18:26.831Z,6.33
2019-05-10T12:21:08.612Z,1.83
2019-05-10T12:23:31.144Z,3.33
2019-05-10T12:27:13.206Z,3.00
2019-05-10T12:28:35.569Z,3.10
2019-05-10T12:31:07.693Z,3.17
2019-05-10T12:33:35.037Z,4.57
2019-05-10T12:36:05.179Z,3.10
2019-05-10T12:38:35.924Z,2.70
2019-05-10T12:41:06.951Z,3.97
2019-05-10T12:43:36.786Z,2.40
2019-05-10T12:46:06.710Z,4.00
2019-05-10T12:48:36.539Z,5.73
2019-05-10T12:51:11.526Z,4.37
2019-05-10T12:53:44.521Z,3.23
2019-05-10T12:56:09.986Z,4.97
2019-05-10T12:58:39.843Z,4.00
2019-05-10T13:01:10.009Z,3.33
2019-05-10T13:03:39.882Z,22.27
2019-05-10T13:06:09.829Z,4.03
2019-05-10T13:08:39.980Z,4.00
2019-05-10T13:11:10.503Z,4.53
2019-05-10T13:13:40.389Z,5.13
2019-05-10T13:16:11.959Z,5.40
2019-05-10T13:18:50.811Z,5.10
2019-05-10T13:21:20.929Z,5.63
2019-05-10T13:23:45.522Z,4.27
2019-05-10T13:26:15.429Z,3.90
2019-05-10T13:28:45.987Z,3.47
2019-05-10T13:31:15.833Z,4.00
2019-05-10T13:33:46.019Z,4.50
2019-05-10T13:36:16.202Z,2.83
2019-05-10T13:38:49.347Z,2.40
2019-05-10T13:41:23.871Z,4.57
2019-05-10T13:43:49.542Z,4.93
2019-05-10T13:46:19.648Z,2.30
2019-05-10T13:48:49.814Z,2.37
2019-05-10T13:51:20.285Z,4.13
2019-05-10T13:54:09.390Z,2.40
2019-05-10T13:56:45.203Z,8.17
2019-05-10T13:59:15.973Z,2.77
2019-05-10T14:01:44.277Z,2.63
2019-05-10T14:04:14.409Z,3.40
2019-05-10T14:06:44.247Z,2.30
2019-05-10T14:09:14.083Z,2.20
2019-05-10T14:11:46.851Z,2.40
2019-05-10T14:14:20.495Z,2.27
2019-05-10T14:16:48.473Z,2.27
2019-05-10T14:19:23.064Z,1.93
2019-05-10T14:21:50.040Z,2.20
2019-05-10T14:24:19.862Z,2.10
2019-05-10T14:26:51.468Z,3.53
2019-05-10T14:29:32.915Z,2.53
2019-05-10T14:31:53.576Z,2.30
2019-05-10T14:34:23.751Z,3.20
2019-05-10T14:36:53.592Z,3.60
2019-05-10T14:39:23.498Z,4.73
2019-05-10T14:41:53.684Z,6.70
2019-05-10T14:44:23.840Z,2.97
2019-05-10T14:46:53.745Z,5.43
2019-05-10T14:49:23.654Z,5.90
2019-05-10T14:51:58.866Z,3.10
2019-05-10T14:54:25.560Z,3.77
2019-05-10T14:56:55.688Z,2.67
2019-05-10T14:59:25.542Z,3.13
2019-05-10T15:01:55.405Z,3.67
2019-05-10T15:06:56.854Z,2.93
2019-05-10T15:09:27.003Z,2.30
2019-05-10T15:11:56.844Z,3.23
2019-05-10T15:14:26.721Z,2.90
2019-05-10T15:16:56.690Z,1.80
2019-05-10T15:19:30.987Z,2.50
2019-05-10T15:21:58.431Z,4.17
2019-05-10T15:24:28.304Z,4.13
2019-05-10T15:26:58.136Z,3.13
2019-05-10T15:29:28.286Z,2.50
2019-05-10T15:31:58.519Z,2.60
2019-05-10T15:34:28.345Z,3.87
2019-05-10T15:37:02.608Z,2.90
2019-05-10T15:39:30.498Z,2.57
2019-05-10T15:42:00.960Z,2.63
2019-05-10T15:44:33.654Z,2.67
2019-05-10T15:47:03.387Z,3.03
2019-05-10T15:49:33.257Z,6.80
2019-05-10T15:52:16.690Z,3.50
2019-05-10T15:54:38.110Z,4.17
2019-05-10T15:57:06.832Z,3.47
2019-05-10T15:59:36.657Z,7.20
2019-05-10T16:02:06.836Z,3.13
2019-05-10T16:04:37.074Z,8.90
2019-05-10T16:07:09.298Z,3.57
2019-05-10T16:09:39.322Z,4.00
2019-05-10T16:12:09.187Z,6.17
2019-05-10T16:14:41.123Z,3.50
2019-05-10T16:17:17.614Z,5.10
2019-05-10T16:19:42.308Z,4.50
2019-05-10T16:22:12.143Z,4.47
2019-05-10T16:24:42.011Z,6.73
2019-05-10T16:27:11.826Z,3.97
2019-05-10T16:29:41.679Z,4.00
2019-05-10T16:32:11.539Z,4.43
2019-05-10T16:34:41.388Z,5.70
2019-05-10T16:37:11.531Z,3.87
2019-05-10T16:39:41.448Z,4.17
2019-05-10T16:42:11.275Z,5.13
2019-05-10T16:44:41.436Z,3.60
2019-05-10T16:47:11.297Z,3.77
2019-05-10T16:49:41.141Z,3.80
2019-05-10T16:52:11.341Z,4.67
2019-05-10T16:54:41.227Z,5.67
2019-05-10T16:57:11.393Z,5.70
2019-05-10T16:59:41.527Z,7.27
2019-05-10T17:02:11.958Z,3.73
2019-05-10T17:04:42.172Z,4.47
2019-05-10T17:07:12.909Z,2.97
2019-05-10T17:09:43.852Z,2.70
2019-05-10T17:12:13.773Z,3.63
2019-05-10T17:14:43.650Z,2.57
2019-05-10T17:17:13.915Z,3.03
2019-05-10T17:19:44.084Z,2.83
2019-05-10T17:22:14.518Z,4.00
2019-05-10T17:24:44.647Z,4.23
2019-05-10T17:27:14.503Z,2.87
2019-05-10T17:29:49.164Z,3.33
2019-05-10T17:32:18.722Z,2.10
2019-05-10T17:34:48.418Z,4.00
2019-05-10T17:37:18.289Z,2.90
2019-05-10T17:39:48.401Z,3.10
2019-05-10T17:42:18.532Z,2.47
2019-05-10T17:44:48.663Z,3.87
2019-05-10T17:47:18.782Z,6.77
2019-05-10T17:50:08.013Z,3.67
2019-05-10T17:52:38.262Z,2.93
2019-05-10T17:55:10.778Z,2.83
2019-05-10T17:57:40.713Z,2.63
2019-05-10T18:00:11.374Z,3.37
2019-05-10T18:02:41.563Z,5.67
2019-05-10T18:05:11.921Z,3.97
2019-05-10T18:07:41.763Z,7.17
2019-05-10T18:10:12.056Z,5.20
2019-05-10T18:12:41.873Z,3.30
2019-05-10T18:15:12.249Z,5.93
2019-05-10T18:17:42.116Z,5.03
2019-05-10T18:20:12.431Z,6.53
2019-05-10T18:22:45.066Z,8.37
2019-05-10T18:25:20.230Z,7.97
2019-05-10T18:27:45.954Z,8.97
2019-05-10T18:30:16.251Z,7.70
2019-05-10T18:32:46.148Z,7.20
2019-05-10T18:35:16.991Z,7.47
2019-05-10T18:37:47.289Z,8.20
2019-05-10T18:40:17.598Z,7.97
2019-05-10T18:42:47.425Z,7.70
2019-05-10T18:45:17.416Z,8.47
2019-05-10T18:47:47.246Z,8.47
2019-05-10T18:50:17.274Z,7.13
2019-05-10T18:52:47.123Z,8.47
2019-05-10T18:55:17.192Z,8.73
2019-05-10T18:57:50.417Z,8.77
2019-05-10T19:00:23.247Z,8.67
2019-05-10T19:02:55.325Z,9.97
2019-05-10T19:05:25.182Z,8.50
2019-05-10T19:08:03.228Z,8.30
2019-05-10T19:10:27.617Z,9.47
2019-05-10T19:13:01.636Z,8.10
2019-05-10T19:15:30.761Z,14.80
2019-05-10T19:18:00.610Z,8.77
2019-05-10T19:20:30.846Z,8.13
2019-05-10T19:23:00.680Z,8.17
2019-05-10T19:25:30.548Z,8.03
2019-05-10T19:28:00.529Z,8.33
2019-05-10T19:30:30.817Z,7.67
2019-05-10T19:33:00.930Z,8.93
2019-05-10T19:35:35.793Z,8.90
2019-05-10T19:38:02.841Z,8.30
2019-05-10T19:40:32.735Z,9.00
2019-05-10T19:43:02.666Z,9.50
2019-05-10T19:45:32.658Z,8.87
2019-05-10T19:48:05.777Z,10.47
2019-05-10T19:50:35.411Z,10.33
2019-05-10T19:53:05.757Z,8.30
2019-05-10T19:55:35.991Z,7.83
2019-05-10T19:58:10.461Z,9.53
2019-05-10T20:00:40.470Z,9.87
2019-05-10T20:03:10.690Z,9.37
2019-05-10T20:05:40.615Z,11.27
2019-05-10T20:08:10.498Z,9.10
2019-05-10T20:10:40.407Z,9.57
2019-05-10T20:13:10.401Z,9.80
2019-05-10T20:15:40.642Z,12.93
2019-05-10T20:18:10.869Z,10.83
2019-05-10T20:20:42.046Z,14.93
2019-05-10T20:23:12.588Z,10.77
2019-05-10T20:25:42.581Z,11.67
2019-05-10T20:28:12.437Z,11.23
2019-05-10T20:30:42.334Z,11.73
2019-05-10T20:33:12.489Z,10.97
2019-05-10T20:35:42.347Z,11.63
2019-05-10T20:38:12.710Z,12.00
2019-05-10T20:40:42.608Z,11.77
2019-05-10T20:43:12.798Z,11.27
2019-05-10T20:45:43.286Z,12.10
2019-05-10T20:48:13.171Z,14.07
2019-05-10T20:50:43.693Z,12.23
2019-05-10T20:53:14.134Z,10.77
2019-05-10T20:55:44.810Z,12.23
2019-05-10T20:58:15.476Z,11.90
2019-05-10T21:00:45.353Z,11.23
2019-05-10T21:03:15.309Z,11.10
2019-05-10T21:05:45.162Z,10.90
2019-05-10T21:08:17.229Z,10.77
2019-05-10T21:10:46.993Z,11.70
2019-05-10T21:13:17.183Z,12.23
2019-05-10T21:15:47.036Z,12.13
2019-05-10T21:18:16.905Z,11.90
2019-05-10T21:20:46.806Z,10.20
2019-05-10T21:23:16.771Z,12.80
2019-05-10T21:25:46.677Z,11.83
2019-05-10T21:28:16.514Z,12.50
2019-05-10T21:30:46.427Z,12.90
2019-05-10T21:33:16.303Z,12.43
2019-05-10T21:35:46.510Z,13.30
2019-05-10T21:38:30.760Z,14.10
2019-05-10T21:40:47.928Z,16.70
2019-05-10T21:43:17.803Z,14.73
2019-05-10T21:45:47.955Z,13.90
2019-05-10T21:48:18.422Z,13.93
2019-05-10T21:50:48.264Z,15.17
2019-05-10T21:53:18.164Z,15.13
2019-05-10T21:55:48.086Z,14.20
2019-05-10T21:58:18.499Z,14.17
2019-05-10T22:00:51.558Z,15.03
2019-05-10T22:03:21.547Z,14.67
2019-05-10T22:05:51.384Z,14.80
2019-05-10T22:08:21.338Z,16.17
2019-05-10T22:10:51.249Z,14.10
2019-05-10T22:13:21.159Z,16.97
2019-05-10T22:15:50.993Z,15.80
2019-05-10T22:18:20.855Z,16.77
2019-05-10T22:20:50.750Z,18.23
2019-05-10T22:23:40.167Z,16.30
2019-05-10T22:26:10.106Z,16.93
2019-05-10T22:28:40.340Z,18.33
2019-05-10T22:31:10.262Z,16.90
2019-05-10T22:33:40.131Z,17.70
2019-05-10T22:36:10.024Z,18.13
2019-05-10T22:38:39.892Z,19.33
2019-05-10T22:41:10.041Z,20.03
2019-05-10T22:43:40.267Z,18.90
2019-05-10T22:46:10.171Z,18.17
2019-05-10T22:48:40.050Z,17.50
2019-05-10T22:51:10.222Z,19.27
2019-05-10T22:53:40.082Z,18.63
2019-05-10T22:56:10.001Z,19.30
2019-05-10T22:58:39.915Z,19.10
2019-05-10T23:01:09.860Z,18.37
2019-05-10T23:03:39.777Z,17.30
2019-05-10T23:06:10.165Z,17.27
2019-05-10T23:08:40.062Z,18.33
2019-05-10T23:11:09.936Z,19.57
2019-05-10T23:13:39.822Z,18.63
2019-05-10T23:16:09.721Z,19.77
2019-05-10T23:18:40.034Z,19.17
2019-05-10T23:21:09.955Z,19.83
2019-05-10T23:23:39.852Z,18.50
2019-05-10T23:26:09.741Z,17.40
2019-05-10T23:28:39.881Z,20.80
2019-05-10T23:31:09.780Z,18.20
2019-05-10T23:33:39.651Z,16.60
2019-05-10T23:36:09.521Z,19.23
2019-05-10T23:38:39.418Z,17.63
2019-05-10T23:41:09.879Z,20.17
2019-05-10T23:43:39.803Z,18.47
2019-05-10T23:46:09.679Z,20.20
2019-05-10T23:48:39.525Z,20.20
2019-05-10T23:51:09.456Z,21.20
2019-05-10T23:53:39.639Z,20.40
2019-05-10T23:56:09.896Z,17.90
2019-05-10T23:58:39.820Z,19.80
